createdAt,value
2017-11-21T00:00:50.080Z,6.74
2017-11-21T00:01:50.075Z,6.47
2017-11-21T00:02:50.071Z,6.35
2017-11-21T00:03:50.066Z,6.25
2017-11-21T00:04:50.062Z,6.20
2017-11-21T00:05:50.057Z,5.99
2017-11-21T00:06:50.053Z,6.06
2017-11-21T00:07:50.049Z,6.02
2017-11-21T00:08:50.046Z,6.07
2017-11-21T00:09:50.039Z,6.17
2017-11-21T00:10:50.047Z,6.31
2017-11-21T00:11:50.032Z,6.34
2017-11-21T00:12:50.028Z,6.20
2017-11-21T00:13:50.023Z,6.38
2017-11-21T00:14:50.018Z,6.22
2017-11-21T00:15:50.013Z,6.41
2017-11-21T00:16:50.009Z,6.36
2017-11-21T00:17:50.005Z,6.54
2017-11-21T00:18:50.002Z,6.46
2017-11-21T00:19:49.997Z,6.56
2017-11-21T00:20:49.995Z,6.59
2017-11-21T00:21:49.988Z,6.65
2017-11-21T00:22:49.982Z,6.75
2017-11-21T00:23:49.977Z,6.85
2017-11-21T00:24:49.974Z,6.95
2017-11-21T00:25:49.970Z,6.97
2017-11-21T00:26:49.964Z,7.04
2017-11-21T00:27:49.960Z,7.14
2017-11-21T00:28:49.960Z,7.22
2017-11-21T00:29:49.954Z,7.21
2017-11-21T00:30:49.948Z,7.25
2017-11-21T00:31:49.948Z,7.28
2017-11-21T00:32:49.940Z,7.23
2017-11-21T00:33:49.934Z,7.21
2017-11-21T00:34:49.930Z,7.28
2017-11-21T00:35:49.924Z,7.26
2017-11-21T00:36:49.921Z,7.25
2017-11-21T00:37:49.918Z,7.19
2017-11-21T00:38:49.912Z,7.13
2017-11-21T00:39:49.959Z,7.00
2017-11-21T00:40:49.905Z,7.00
2017-11-21T00:41:49.900Z,6.87
2017-11-21T00:42:49.899Z,6.85
2017-11-21T00:43:49.890Z,6.83
2017-11-21T00:44:49.886Z,6.72
2017-11-21T00:45:49.930Z,6.65
2017-11-21T00:46:49.878Z,6.60
2017-11-21T00:47:49.872Z,6.56
2017-11-21T00:48:49.869Z,6.60
2017-11-21T00:49:49.866Z,6.46
2017-11-21T00:50:49.860Z,6.53
2017-11-21T00:51:49.855Z,6.36
2017-11-21T00:52:49.851Z,6.47
2017-11-21T00:53:49.848Z,6.49
2017-11-21T00:54:49.840Z,6.38
2017-11-21T00:55:49.836Z,6.38
2017-11-21T00:56:49.832Z,6.41
2017-11-21T00:57:49.825Z,6.39
2017-11-21T00:58:49.823Z,6.38
2017-11-21T00:59:49.818Z,6.49
2017-11-21T01:00:49.813Z,6.41
2017-11-21T01:01:49.809Z,6.47
2017-11-21T01:02:49.803Z,6.47
2017-11-21T01:03:49.799Z,6.62
2017-11-21T01:04:49.794Z,6.64
2017-11-21T01:05:49.788Z,6.65
2017-11-21T01:06:49.783Z,6.64
2017-11-21T01:07:49.787Z,6.67
2017-11-21T01:08:49.776Z,6.71
2017-11-21T01:09:49.770Z,6.83
2017-11-21T01:10:49.767Z,6.68
2017-11-21T01:11:49.762Z,6.74
2017-11-21T01:12:49.758Z,6.59
2017-11-21T01:13:49.753Z,6.74
2017-11-21T01:14:49.748Z,6.65
2017-11-21T01:15:49.744Z,6.60
2017-11-21T01:16:49.740Z,6.70
2017-11-21T01:17:49.736Z,6.60
2017-11-21T01:18:49.731Z,6.60
2017-11-21T01:19:49.726Z,6.54
2017-11-21T01:20:49.723Z,6.72
2017-11-21T01:21:49.718Z,6.71
2017-11-21T01:22:49.715Z,6.72
2017-11-21T01:23:49.710Z,6.72
2017-11-21T01:24:49.705Z,6.78
2017-11-21T01:25:49.753Z,6.86
2017-11-21T01:26:49.697Z,6.87
2017-11-21T01:27:49.693Z,6.82
2017-11-21T01:28:49.691Z,6.82
2017-11-21T01:29:49.689Z,6.86
2017-11-21T01:30:49.681Z,6.87
2017-11-21T01:31:49.677Z,6.78
2017-11-21T01:32:49.674Z,6.78
2017-11-21T01:33:49.667Z,6.86
2017-11-21T01:34:49.664Z,6.77
2017-11-21T01:35:49.659Z,6.78
2017-11-21T01:36:49.657Z,6.89
2017-11-21T01:37:49.652Z,6.83
2017-11-21T01:38:49.647Z,6.87
2017-11-21T01:39:49.644Z,6.89
2017-11-21T01:40:49.640Z,6.85
2017-11-21T01:41:49.686Z,6.89
2017-11-21T01:42:49.633Z,6.85
2017-11-21T01:43:49.628Z,6.85
2017-11-21T01:44:49.624Z,6.86
2017-11-21T01:45:49.620Z,7.01
2017-11-21T01:46:49.616Z,6.89
2017-11-21T01:47:49.611Z,6.96
2017-11-21T01:48:49.608Z,7.03
2017-11-21T01:49:49.604Z,7.01
2017-11-21T01:50:49.600Z,6.97
2017-11-21T01:51:49.596Z,6.97
2017-11-21T01:52:49.593Z,7.01
2017-11-21T01:53:49.587Z,7.03
2017-11-21T01:54:49.585Z,7.07
2017-11-21T01:55:49.580Z,7.13
2017-11-21T01:56:49.577Z,7.07
2017-11-21T01:57:49.571Z,7.04
2017-11-21T01:58:49.571Z,7.08
2017-11-21T01:59:49.565Z,7.19
2017-11-21T02:00:49.560Z,7.18
2017-11-21T02:01:49.555Z,7.11
2017-11-21T02:02:49.552Z,7.03
2017-11-21T02:03:49.549Z,7.15
2017-11-21T02:04:49.544Z,7.05
2017-11-21T02:05:49.540Z,7.01
2017-11-21T02:06:49.536Z,7.01
2017-11-21T02:07:49.531Z,6.96
2017-11-21T02:08:49.528Z,6.87
2017-11-21T02:09:49.524Z,6.96
2017-11-21T02:10:49.519Z,6.86
2017-11-21T02:11:49.515Z,6.95
2017-11-21T02:12:49.511Z,6.83
2017-11-21T02:13:49.506Z,6.93
2017-11-21T02:14:49.502Z,6.90
2017-11-21T02:15:49.499Z,6.89
2017-11-21T02:16:49.496Z,6.85
2017-11-21T02:17:49.490Z,6.93
2017-11-21T02:18:49.486Z,6.89
2017-11-21T02:19:49.482Z,7.03
2017-11-21T02:20:49.478Z,7.07
2017-11-21T02:21:49.481Z,6.96
2017-11-21T02:22:49.468Z,7.01
2017-11-21T02:23:49.464Z,7.00
2017-11-21T02:24:49.461Z,7.01
2017-11-21T02:25:49.459Z,6.93
2017-11-21T02:26:49.452Z,7.03
2017-11-21T02:27:49.446Z,7.00
2017-11-21T02:28:49.444Z,6.95
2017-11-21T02:29:49.440Z,7.03
2017-11-21T02:30:49.442Z,7.00
2017-11-21T02:31:49.431Z,7.00
2017-11-21T02:32:49.425Z,7.01
2017-11-21T02:33:49.422Z,7.03
2017-11-21T02:34:49.415Z,7.04
2017-11-21T02:35:49.414Z,7.04
2017-11-21T02:36:49.409Z,7.05
2017-11-21T02:37:49.403Z,7.05
2017-11-21T02:38:49.449Z,7.03
2017-11-21T02:39:49.395Z,7.13
2017-11-21T02:40:49.390Z,7.18
2017-11-21T02:41:49.386Z,7.15
2017-11-21T02:42:49.382Z,7.19
2017-11-21T02:43:49.378Z,7.18
2017-11-21T02:44:49.373Z,7.23
2017-11-21T02:45:49.375Z,7.28
2017-11-21T02:46:49.365Z,7.23
2017-11-21T02:47:49.361Z,7.26
2017-11-21T02:48:49.354Z,7.23
2017-11-21T02:49:49.351Z,7.21
2017-11-21T02:50:49.347Z,7.28
2017-11-21T02:51:49.344Z,7.23
2017-11-21T02:52:49.338Z,7.32
2017-11-21T02:53:49.333Z,7.40
2017-11-21T02:54:49.330Z,7.39
2017-11-21T02:55:49.327Z,7.37
2017-11-21T02:56:49.321Z,7.32
2017-11-21T02:57:49.316Z,7.39
2017-11-21T02:58:49.311Z,7.43
2017-11-21T02:59:49.308Z,7.56
2017-11-21T03:00:49.304Z,7.59
2017-11-21T03:01:49.299Z,7.61
2017-11-21T03:02:49.295Z,7.58
2017-11-21T03:03:49.290Z,7.59
2017-11-21T03:04:49.286Z,7.48
2017-11-21T03:05:49.282Z,7.43
2017-11-21T03:06:49.277Z,7.32
2017-11-21T03:07:49.271Z,7.31
2017-11-21T03:08:49.269Z,7.31
2017-11-21T03:09:49.265Z,7.26
2017-11-21T03:10:49.260Z,7.25
2017-11-21T03:11:49.256Z,7.26
2017-11-21T03:12:49.251Z,7.26
2017-11-21T03:13:49.248Z,7.18
2017-11-21T03:14:49.242Z,7.05
2017-11-21T03:15:49.288Z,7.03
2017-11-21T03:16:49.232Z,6.95
2017-11-21T03:17:49.229Z,6.90
2017-11-21T03:18:49.225Z,6.87
2017-11-21T03:19:49.219Z,6.85
2017-11-21T03:20:49.215Z,6.75
2017-11-21T03:21:49.210Z,6.89
2017-11-21T03:22:49.212Z,6.82
2017-11-21T03:23:49.201Z,6.85
2017-11-21T03:24:49.197Z,6.77
2017-11-21T03:25:49.191Z,6.80
2017-11-21T03:26:49.186Z,6.70
2017-11-21T03:27:49.183Z,6.71
2017-11-21T03:28:49.178Z,6.70
2017-11-21T03:29:49.172Z,6.62
2017-11-21T03:30:49.169Z,6.70
2017-11-21T03:31:49.164Z,6.74
2017-11-21T03:32:49.159Z,6.70
2017-11-21T03:33:49.153Z,6.71
2017-11-21T03:34:49.149Z,6.68
2017-11-21T03:35:49.144Z,6.71
2017-11-21T03:36:49.141Z,6.52
2017-11-21T03:37:49.135Z,6.77
2017-11-21T03:38:49.139Z,6.71
2017-11-21T03:39:49.126Z,6.67
2017-11-21T03:40:49.123Z,6.65
2017-11-21T03:41:49.117Z,6.75
2017-11-21T03:42:49.113Z,6.71
2017-11-21T03:43:49.109Z,6.70
2017-11-21T03:44:49.103Z,6.75
2017-11-21T03:45:49.099Z,6.71
2017-11-21T03:46:49.096Z,6.75
2017-11-21T03:47:49.092Z,6.77
2017-11-21T03:48:49.086Z,6.80
2017-11-21T03:49:49.081Z,6.68
2017-11-21T03:50:49.080Z,6.70
2017-11-21T03:51:49.077Z,6.74
2017-11-21T03:52:49.069Z,6.71
2017-11-21T03:53:49.067Z,6.68
2017-11-21T03:54:49.060Z,6.68
2017-11-21T03:55:49.056Z,6.67
2017-11-21T03:56:49.053Z,6.65
2017-11-21T03:57:49.047Z,6.59
2017-11-21T03:58:49.043Z,6.62
2017-11-21T03:59:49.040Z,6.41
2017-11-21T04:00:49.035Z,6.46
2017-11-21T04:01:49.030Z,6.44
2017-11-21T04:02:49.027Z,6.50
2017-11-21T04:03:49.022Z,6.47
2017-11-21T04:04:49.019Z,6.54
2017-11-21T04:05:49.013Z,6.52
2017-11-21T04:06:49.009Z,6.41
2017-11-21T04:07:49.006Z,6.36
2017-11-21T04:08:49.000Z,6.39
2017-11-21T04:09:49.045Z,6.41
2017-11-21T04:10:48.994Z,6.43
2017-11-21T04:11:48.990Z,6.32
2017-11-21T04:12:48.985Z,6.39
2017-11-21T04:13:48.978Z,6.49
2017-11-21T04:14:48.973Z,6.34
2017-11-21T04:15:48.969Z,6.47
2017-11-21T04:16:48.964Z,6.57
2017-11-21T04:17:48.960Z,6.44
2017-11-21T04:18:48.956Z,6.53
2017-11-21T04:19:48.951Z,6.56
2017-11-21T04:20:48.948Z,6.64
2017-11-21T04:21:48.943Z,6.59
2017-11-21T04:22:48.938Z,6.64
2017-11-21T04:23:48.935Z,6.67
2017-11-21T04:24:48.929Z,6.74
2017-11-21T04:25:48.924Z,6.75
2017-11-21T04:26:48.920Z,6.77
2017-11-21T04:27:48.917Z,6.77
2017-11-21T04:28:48.912Z,6.87
2017-11-21T04:29:48.908Z,6.85
2017-11-21T04:30:48.903Z,6.87
2017-11-21T04:31:48.899Z,6.86
2017-11-21T04:32:48.895Z,7.07
2017-11-21T04:33:48.892Z,7.00
2017-11-21T04:34:48.885Z,7.07
2017-11-21T04:35:48.883Z,6.97
2017-11-21T04:36:48.880Z,7.07
2017-11-21T04:37:48.873Z,6.97
2017-11-21T04:38:48.870Z,7.00
2017-11-21T04:39:48.875Z,7.23
2017-11-21T04:40:48.862Z,7.31
2017-11-21T04:41:48.858Z,7.28
2017-11-21T04:42:48.854Z,7.29
2017-11-21T04:43:48.851Z,7.39
2017-11-21T04:44:48.847Z,7.32
2017-11-21T04:45:48.842Z,7.29
2017-11-21T04:46:48.839Z,7.32
2017-11-21T04:47:48.885Z,7.26
2017-11-21T04:48:48.831Z,7.29
2017-11-21T04:49:48.829Z,7.31
2017-11-21T04:50:48.823Z,7.44
2017-11-21T04:51:48.819Z,7.39
2017-11-21T04:52:48.816Z,7.32
2017-11-21T04:53:48.812Z,7.21
2017-11-21T04:54:48.811Z,7.39
2017-11-21T04:55:48.808Z,7.36
2017-11-21T04:56:48.801Z,7.46
2017-11-21T04:57:48.797Z,7.44
2017-11-21T04:58:48.795Z,7.43
2017-11-21T04:59:48.790Z,7.46
2017-11-21T05:00:48.786Z,7.39
2017-11-21T05:01:48.832Z,7.29
2017-11-21T05:02:48.778Z,7.33
2017-11-21T05:03:48.774Z,7.26
2017-11-21T05:04:48.771Z,7.22
2017-11-21T05:05:48.771Z,7.25
2017-11-21T05:06:48.764Z,7.21
2017-11-21T05:07:48.759Z,7.18
2017-11-21T05:08:48.761Z,7.14
2017-11-21T05:09:48.751Z,7.23
2017-11-21T05:10:48.748Z,7.23
2017-11-21T05:11:48.744Z,7.33
2017-11-21T05:12:48.745Z,7.41
2017-11-21T05:13:48.735Z,7.41
2017-11-21T05:14:48.734Z,7.33
2017-11-21T05:15:48.728Z,7.43
2017-11-21T05:16:48.725Z,7.46
2017-11-21T05:17:48.720Z,7.46
2017-11-21T05:18:48.716Z,7.43
2017-11-21T05:19:48.712Z,7.47
2017-11-21T05:20:48.708Z,7.48
2017-11-21T05:21:48.704Z,7.47
2017-11-21T05:22:48.702Z,7.40
2017-11-21T05:23:48.715Z,7.37
2017-11-21T05:24:48.692Z,7.33
2017-11-21T05:25:48.690Z,7.33
2017-11-21T05:26:48.738Z,7.43
2017-11-21T05:27:48.691Z,7.44
2017-11-21T05:28:48.677Z,7.48
2017-11-21T05:29:48.671Z,7.55
2017-11-21T05:30:48.670Z,7.58
2017-11-21T05:31:48.664Z,7.53
2017-11-21T05:32:48.660Z,7.47
2017-11-21T05:33:48.655Z,7.48
2017-11-21T05:34:48.651Z,7.41
2017-11-21T05:35:48.694Z,7.55
2017-11-21T05:36:48.644Z,7.62
2017-11-21T05:37:48.639Z,7.59
2017-11-21T05:38:48.636Z,7.58
2017-11-21T05:39:48.631Z,7.56
2017-11-21T05:40:48.627Z,7.56
2017-11-21T05:41:48.622Z,7.58
2017-11-21T05:42:48.618Z,7.56
2017-11-21T05:43:48.614Z,7.50
2017-11-21T05:44:48.609Z,7.59
2017-11-21T05:45:48.605Z,7.62
2017-11-21T05:46:48.601Z,7.66
2017-11-21T05:47:48.596Z,7.59
2017-11-21T05:48:48.593Z,7.74
2017-11-21T05:49:48.588Z,7.61
2017-11-21T05:50:48.585Z,7.64
2017-11-21T05:51:48.580Z,7.67
2017-11-21T05:52:48.576Z,7.69
2017-11-21T05:53:48.570Z,7.75
2017-11-21T05:54:48.567Z,7.69
2017-11-21T05:55:48.562Z,7.74
2017-11-21T05:56:48.558Z,7.69
2017-11-21T05:57:48.558Z,7.69
2017-11-21T05:58:48.554Z,7.64
2017-11-21T05:59:48.545Z,7.72
2017-11-21T06:00:48.542Z,7.67
2017-11-21T06:01:48.536Z,7.69
2017-11-21T06:02:48.532Z,7.62
2017-11-21T06:03:48.534Z,7.72
2017-11-21T06:04:48.526Z,7.74
2017-11-21T06:05:48.520Z,7.66
2017-11-21T06:06:48.516Z,7.67
2017-11-21T06:07:48.512Z,7.62
2017-11-21T06:08:48.508Z,7.74
2017-11-21T06:09:48.504Z,7.62
2017-11-21T06:10:48.500Z,7.70
2017-11-21T06:11:48.497Z,7.70
2017-11-21T06:12:48.491Z,7.61
2017-11-21T06:13:48.488Z,7.64
2017-11-21T06:14:48.483Z,7.72
2017-11-21T06:15:48.530Z,7.75
2017-11-21T06:16:48.475Z,7.66
2017-11-21T06:17:48.472Z,7.67
2017-11-21T06:18:48.467Z,7.81
2017-11-21T06:19:48.464Z,7.75
2017-11-21T06:20:48.461Z,7.85
2017-11-21T06:21:48.455Z,7.87
2017-11-21T06:22:48.452Z,7.87
2017-11-21T06:23:48.451Z,7.83
2017-11-21T06:24:48.446Z,7.96
2017-11-21T06:25:48.441Z,7.84
2017-11-21T06:26:48.437Z,7.85
2017-11-21T06:27:48.434Z,7.83
2017-11-21T06:28:48.445Z,7.85
2017-11-21T06:29:48.426Z,7.87
2017-11-21T06:30:48.423Z,7.85
2017-11-21T06:31:48.419Z,7.84
2017-11-21T06:32:48.416Z,7.84
2017-11-21T06:33:48.419Z,7.88
2017-11-21T06:34:48.409Z,7.85
2017-11-21T06:35:48.408Z,7.84
2017-11-21T06:36:48.404Z,7.84
2017-11-21T06:37:48.399Z,7.87
2017-11-21T06:38:48.395Z,7.93
2017-11-21T06:39:48.392Z,7.90
2017-11-21T06:40:48.390Z,7.91
2017-11-21T06:41:48.385Z,7.88
2017-11-21T06:42:48.382Z,7.87
2017-11-21T06:43:48.381Z,7.83
2017-11-21T06:44:48.376Z,7.78
2017-11-21T06:45:48.372Z,7.83
2017-11-21T06:46:48.669Z,7.81
2017-11-21T06:47:48.366Z,7.80
2017-11-21T06:48:48.363Z,7.85
2017-11-21T06:49:48.359Z,7.85
2017-11-21T06:50:48.356Z,7.88
2017-11-21T06:51:48.353Z,7.90
2017-11-21T06:52:48.349Z,7.96
2017-11-21T06:53:48.347Z,7.95
2017-11-21T06:54:48.343Z,7.96
2017-11-21T06:55:48.341Z,8.05
2017-11-21T06:56:48.338Z,8.14
2017-11-21T06:57:48.333Z,8.16
2017-11-21T06:58:48.331Z,8.14
2017-11-21T06:59:48.334Z,8.05
2017-11-21T07:00:48.324Z,8.20
2017-11-21T07:01:48.318Z,8.14
2017-11-21T07:02:48.316Z,8.11
2017-11-21T07:03:48.315Z,8.11
2017-11-21T07:04:48.315Z,8.11
2017-11-21T07:05:48.312Z,8.14
2017-11-21T07:06:48.305Z,8.09
2017-11-21T07:07:48.303Z,8.11
2017-11-21T07:08:48.300Z,8.08
2017-11-21T07:09:48.295Z,8.11
2017-11-21T07:10:48.291Z,8.23
2017-11-21T07:11:48.290Z,8.16
2017-11-21T07:12:48.288Z,8.18
2017-11-21T07:13:48.283Z,8.21
2017-11-21T07:14:48.281Z,8.17
2017-11-21T07:15:48.278Z,8.24
2017-11-21T07:16:48.274Z,8.26
2017-11-21T07:17:48.270Z,8.16
2017-11-21T07:18:48.267Z,8.31
2017-11-21T07:19:48.265Z,8.31
2017-11-21T07:20:48.261Z,8.31
2017-11-21T07:21:48.259Z,8.34
2017-11-21T07:22:48.257Z,8.21
2017-11-21T07:23:48.252Z,8.18
2017-11-21T07:24:48.253Z,8.18
2017-11-21T07:25:48.247Z,8.14
2017-11-21T07:26:48.243Z,8.21
2017-11-21T07:27:48.241Z,8.20
2017-11-21T07:28:48.238Z,8.20
2017-11-21T07:29:48.236Z,8.17
2017-11-21T07:30:48.240Z,8.20
2017-11-21T07:31:48.229Z,8.23
2017-11-21T07:32:48.227Z,8.17
2017-11-21T07:33:48.224Z,8.16
2017-11-21T07:34:48.220Z,8.16
2017-11-21T07:35:48.217Z,8.02
2017-11-21T07:36:48.216Z,8.13
2017-11-21T07:37:48.213Z,8.08
2017-11-21T07:38:48.208Z,8.08
2017-11-21T07:39:48.205Z,8.08
2017-11-21T07:40:48.205Z,8.09
2017-11-21T07:41:48.201Z,8.16
2017-11-21T07:42:48.197Z,8.05
2017-11-21T07:43:48.202Z,8.11
2017-11-21T07:44:48.191Z,8.11
2017-11-21T07:45:48.195Z,8.17
2017-11-21T07:46:48.186Z,8.16
2017-11-21T07:47:48.182Z,8.14
2017-11-21T07:48:48.180Z,8.27
2017-11-21T07:49:48.176Z,8.35
2017-11-21T07:50:48.174Z,8.28
2017-11-21T07:51:48.170Z,8.34
2017-11-21T07:52:48.168Z,8.31
2017-11-21T07:53:48.163Z,8.28
2017-11-21T07:54:48.160Z,8.38
2017-11-21T07:55:48.158Z,8.41
2017-11-21T07:56:48.160Z,8.38
2017-11-21T07:57:48.153Z,8.39
2017-11-21T07:58:48.150Z,8.46
2017-11-21T07:59:48.148Z,8.38
2017-11-21T08:00:48.143Z,8.52
2017-11-21T08:01:48.140Z,8.57
2017-11-21T08:02:48.143Z,8.50
2017-11-21T08:03:48.135Z,8.50
2017-11-21T08:04:48.132Z,8.57
2017-11-21T08:05:48.135Z,8.57
2017-11-21T08:06:48.176Z,8.54
2017-11-21T08:07:48.123Z,8.50
2017-11-21T08:08:48.121Z,8.61
2017-11-21T08:09:48.167Z,8.59
2017-11-21T08:10:48.116Z,8.54
2017-11-21T08:11:48.114Z,8.59
2017-11-21T08:12:48.109Z,8.61
2017-11-21T08:13:48.110Z,8.57
2017-11-21T08:14:48.112Z,8.64
2017-11-21T08:15:48.102Z,8.59
2017-11-21T08:16:48.100Z,8.61
2017-11-21T08:17:48.098Z,8.63
2017-11-21T08:18:48.094Z,8.64
2017-11-21T08:19:48.091Z,8.63
2017-11-21T08:20:48.089Z,8.69
2017-11-21T08:21:48.087Z,8.66
2017-11-21T08:22:48.083Z,8.82
2017-11-21T08:23:48.081Z,8.79
2017-11-21T08:24:48.081Z,8.79
2017-11-21T08:25:48.126Z,8.90
2017-11-21T08:26:48.075Z,8.95
2017-11-21T08:27:48.081Z,8.90
2017-11-21T08:28:48.069Z,8.97
2017-11-21T08:29:48.065Z,8.96
2017-11-21T08:30:48.065Z,8.99
2017-11-21T08:31:48.062Z,9.02
2017-11-21T08:32:48.061Z,8.87
2017-11-21T08:33:48.058Z,9.03
2017-11-21T08:34:48.058Z,9.11
2017-11-21T08:35:48.054Z,9.09
2017-11-21T08:36:48.051Z,9.11
2017-11-21T08:37:48.049Z,9.12
2017-11-21T08:38:48.047Z,9.12
2017-11-21T08:39:48.045Z,9.03
2017-11-21T08:40:48.042Z,9.12
2017-11-21T08:41:48.040Z,9.16
2017-11-21T08:42:48.044Z,9.16
2017-11-21T08:43:48.036Z,9.18
2017-11-21T08:44:48.085Z,9.31
2017-11-21T08:45:48.032Z,9.30
2017-11-21T08:46:48.048Z,9.33
2017-11-21T08:47:48.029Z,9.31
2017-11-21T08:48:48.026Z,9.37
2017-11-21T08:49:48.025Z,9.36
2017-11-21T08:50:48.023Z,9.36
2017-11-21T08:51:48.049Z,9.47
2017-11-21T08:52:48.070Z,9.48
2017-11-21T08:53:48.017Z,9.45
2017-11-21T08:54:48.015Z,9.49
2017-11-21T08:55:48.025Z,9.47
2017-11-21T08:56:48.012Z,9.49
2017-11-21T08:57:48.010Z,9.47
2017-11-21T08:58:48.008Z,9.42
2017-11-21T08:59:48.005Z,9.47
2017-11-21T09:00:48.005Z,9.48
2017-11-21T09:01:48.003Z,9.52
2017-11-21T09:02:48.000Z,9.58
2017-11-21T09:03:48.023Z,9.55
2017-11-21T09:04:47.997Z,9.56
2017-11-21T09:05:47.997Z,9.58
2017-11-21T09:06:47.995Z,9.55
2017-11-21T09:07:47.993Z,9.62
2017-11-21T09:08:47.990Z,9.67
2017-11-21T09:09:47.989Z,9.64
2017-11-21T09:10:47.987Z,9.69
2017-11-21T09:11:47.986Z,9.64
2017-11-21T09:12:47.983Z,9.63
2017-11-21T09:13:47.982Z,9.54
2017-11-21T09:14:47.989Z,9.66
2017-11-21T09:15:47.979Z,9.59
2017-11-21T09:16:47.977Z,9.58
2017-11-21T09:17:47.977Z,9.55
2017-11-21T09:18:47.974Z,9.56
2017-11-21T09:19:48.024Z,9.66
2017-11-21T09:20:47.971Z,9.52
2017-11-21T09:21:47.969Z,9.52
2017-11-21T09:22:47.967Z,9.55
2017-11-21T09:23:47.987Z,9.47
2017-11-21T09:24:47.964Z,9.52
2017-11-21T09:25:47.963Z,9.49
2017-11-21T09:26:47.961Z,9.47
2017-11-21T09:27:47.969Z,9.45
2017-11-21T09:28:47.958Z,9.40
2017-11-21T09:29:47.956Z,9.45
2017-11-21T09:30:47.962Z,9.39
2017-11-21T09:31:47.956Z,9.36
2017-11-21T09:32:47.951Z,9.37
2017-11-21T09:33:47.950Z,9.40
2017-11-21T09:34:47.948Z,9.39
2017-11-21T09:35:47.946Z,9.40
2017-11-21T09:36:47.945Z,9.42
2017-11-21T09:37:47.993Z,9.49
2017-11-21T09:38:47.940Z,9.40
2017-11-21T09:39:47.940Z,9.47
2017-11-21T09:40:47.939Z,9.42
2017-11-21T09:41:47.936Z,9.42
2017-11-21T09:42:47.985Z,9.48
2017-11-21T09:43:47.940Z,9.37
2017-11-21T09:44:47.933Z,9.40
2017-11-21T09:45:47.931Z,9.42
2017-11-21T09:46:47.931Z,9.42
2017-11-21T09:47:47.928Z,9.37
2017-11-21T09:48:47.927Z,9.47
2017-11-21T09:49:47.925Z,9.42
2017-11-21T09:50:47.924Z,9.37
2017-11-21T09:51:47.922Z,9.36
2017-11-21T09:52:47.921Z,9.45
2017-11-21T09:53:47.919Z,9.34
2017-11-21T09:54:47.918Z,9.30
2017-11-21T09:55:47.916Z,9.27
2017-11-21T09:56:47.915Z,9.31
2017-11-21T09:57:47.916Z,9.26
2017-11-21T09:58:47.913Z,9.21
2017-11-21T09:59:47.911Z,9.08
2017-11-21T10:00:47.908Z,9.21
2017-11-21T10:01:47.907Z,9.19
2017-11-21T10:02:47.907Z,9.16
2017-11-21T10:03:47.904Z,9.26
2017-11-21T10:04:47.903Z,9.24
2017-11-21T10:05:47.901Z,9.30
2017-11-21T10:06:47.900Z,9.29
2017-11-21T10:07:47.898Z,9.30
2017-11-21T10:08:47.900Z,9.37
2017-11-21T10:09:47.894Z,9.26
2017-11-21T10:10:47.894Z,9.24
2017-11-21T10:11:47.890Z,9.24
2017-11-21T10:12:47.896Z,9.27
2017-11-21T10:13:47.887Z,9.27
2017-11-21T10:14:47.885Z,9.24
2017-11-21T10:15:47.884Z,9.21
2017-11-21T10:16:47.883Z,9.27
2017-11-21T10:17:47.880Z,9.24
2017-11-21T10:18:47.876Z,9.31
2017-11-21T10:19:47.877Z,9.39
2017-11-21T10:20:47.876Z,9.42
2017-11-21T10:21:47.872Z,9.51
2017-11-21T10:22:47.872Z,9.56
2017-11-21T10:23:47.869Z,9.62
2017-11-21T10:24:47.869Z,9.52
2017-11-21T10:25:47.865Z,9.54
2017-11-21T10:26:47.865Z,9.63
2017-11-21T10:27:47.863Z,9.66
2017-11-21T10:28:47.863Z,9.59
2017-11-21T10:29:47.859Z,9.66
2017-11-21T10:30:47.859Z,9.76
2017-11-21T10:31:47.857Z,9.90
2017-11-21T10:32:47.860Z,9.81
2017-11-21T10:33:47.853Z,9.81
2017-11-21T10:34:47.852Z,9.84
2017-11-21T10:35:47.854Z,9.80
2017-11-21T10:36:47.849Z,9.72
2017-11-21T10:37:47.848Z,9.77
2017-11-21T10:38:47.845Z,9.76
2017-11-21T10:39:47.943Z,9.72
2017-11-21T10:40:47.843Z,9.72
2017-11-21T10:41:47.839Z,9.77
2017-11-21T10:42:47.839Z,9.72
2017-11-21T10:43:47.838Z,9.69
2017-11-21T10:44:47.840Z,9.73
2017-11-21T10:45:47.834Z,9.73
2017-11-21T10:46:47.833Z,9.73
2017-11-21T10:47:47.833Z,9.70
2017-11-21T10:48:47.830Z,9.66
2017-11-21T10:49:47.828Z,9.52
2017-11-21T10:50:47.826Z,9.49
2017-11-21T10:51:47.825Z,9.47
2017-11-21T10:52:47.823Z,9.44
2017-11-21T10:53:47.973Z,9.36
2017-11-21T10:54:47.820Z,9.39
2017-11-21T10:55:47.817Z,9.33
2017-11-21T10:56:47.817Z,9.39
2017-11-21T10:57:47.816Z,9.34
2017-11-21T10:58:47.812Z,9.34
2017-11-21T10:59:47.811Z,9.49
2017-11-21T11:00:47.808Z,9.48
2017-11-21T11:01:47.810Z,9.52
2017-11-21T11:02:47.856Z,9.64
2017-11-21T11:03:47.804Z,9.62
2017-11-21T11:04:47.804Z,9.73
2017-11-21T11:05:47.801Z,9.74
2017-11-21T11:06:47.798Z,9.80
2017-11-21T11:07:47.798Z,9.88
2017-11-21T11:08:47.796Z,9.92
2017-11-21T11:09:47.795Z,10.00
2017-11-21T11:10:47.809Z,9.99
2017-11-21T11:11:47.791Z,10.07
2017-11-21T11:12:47.789Z,10.09
2017-11-21T11:13:47.788Z,10.09
2017-11-21T11:14:47.787Z,10.15
2017-11-21T11:15:47.785Z,10.06
2017-11-21T11:16:47.784Z,10.05
2017-11-21T11:17:47.782Z,10.09
2017-11-21T11:18:47.781Z,10.15
2017-11-21T11:19:47.780Z,10.06
2017-11-21T11:20:47.779Z,10.05
2017-11-21T11:21:47.825Z,10.17
2017-11-21T11:22:47.775Z,10.13
2017-11-21T11:23:47.776Z,10.23
2017-11-21T11:24:47.774Z,10.18
2017-11-21T11:25:47.769Z,10.27
2017-11-21T11:26:47.768Z,10.25
2017-11-21T11:27:47.768Z,10.25
2017-11-21T11:28:47.766Z,10.34
2017-11-21T11:29:47.762Z,10.41
2017-11-21T11:30:47.761Z,10.39
2017-11-21T11:31:47.759Z,10.43
2017-11-21T11:32:47.759Z,10.48
2017-11-21T11:33:47.755Z,10.41
2017-11-21T11:34:47.753Z,10.49
2017-11-21T11:35:47.755Z,10.58
2017-11-21T11:36:47.751Z,10.51
2017-11-21T11:37:47.748Z,10.48
2017-11-21T11:38:47.747Z,10.58
2017-11-21T11:39:47.747Z,10.41
2017-11-21T11:40:47.746Z,10.45
2017-11-21T11:41:47.745Z,10.48
2017-11-21T11:42:47.743Z,10.45
2017-11-21T11:43:47.745Z,10.41
2017-11-21T11:44:47.738Z,10.55
2017-11-21T11:45:47.745Z,10.38
2017-11-21T11:46:47.734Z,10.21
2017-11-21T11:47:47.733Z,10.27
2017-11-21T11:48:47.733Z,10.15
2017-11-21T11:49:47.729Z,10.20
2017-11-21T11:50:47.729Z,10.15
2017-11-21T11:51:47.727Z,10.12
2017-11-21T11:52:47.725Z,10.10
2017-11-21T11:53:47.723Z,10.12
2017-11-21T11:54:47.720Z,10.12
2017-11-21T11:55:47.717Z,10.20
2017-11-21T11:56:47.717Z,10.10
2017-11-21T11:57:47.716Z,10.18
2017-11-21T11:58:47.713Z,10.10
2017-11-21T11:59:47.712Z,10.05
2017-11-21T12:00:47.709Z,10.00
2017-11-21T12:01:47.708Z,10.06
2017-11-21T12:02:47.706Z,10.15
2017-11-21T12:03:47.704Z,10.12
2017-11-21T12:04:47.706Z,10.20
2017-11-21T12:05:47.700Z,10.10
2017-11-21T12:06:47.701Z,10.03
2017-11-21T12:07:47.696Z,10.02
2017-11-21T12:08:47.695Z,9.95
2017-11-21T12:09:47.693Z,9.82
2017-11-21T12:10:47.692Z,9.84
2017-11-21T12:11:47.710Z,9.82
2017-11-21T12:12:47.694Z,9.85
2017-11-21T12:13:47.688Z,9.81
2017-11-21T12:14:47.685Z,9.85
2017-11-21T12:15:47.681Z,9.84
2017-11-21T12:16:47.680Z,9.85
2017-11-21T12:17:47.678Z,9.88
2017-11-21T12:18:47.678Z,9.82
2017-11-21T12:19:47.674Z,9.84
2017-11-21T12:20:47.674Z,9.92
2017-11-21T12:21:47.679Z,9.99
2017-11-21T12:22:47.669Z,9.92
2017-11-21T12:23:47.720Z,9.82
2017-11-21T12:24:47.668Z,9.90
2017-11-21T12:25:47.665Z,9.84
2017-11-21T12:26:47.662Z,9.82
2017-11-21T12:27:47.662Z,9.82
2017-11-21T12:28:47.659Z,9.80
2017-11-21T12:29:47.657Z,9.85
2017-11-21T12:30:47.657Z,9.84
2017-11-21T12:31:47.655Z,9.84
2017-11-21T12:32:47.653Z,9.85
2017-11-21T12:33:47.649Z,9.82
2017-11-21T12:34:47.648Z,9.84
2017-11-21T12:35:47.655Z,9.88
2017-11-21T12:36:47.646Z,9.84
2017-11-21T12:37:47.643Z,9.90
2017-11-21T12:38:47.643Z,9.81
2017-11-21T12:39:47.647Z,9.80
2017-11-21T12:40:47.640Z,9.73
2017-11-21T12:41:47.643Z,9.69
2017-11-21T12:42:47.662Z,9.73
2017-11-21T12:43:47.635Z,9.88
2017-11-21T12:44:47.634Z,9.87
2017-11-21T12:45:47.631Z,9.85
2017-11-21T12:46:47.630Z,9.85
2017-11-21T12:47:47.629Z,9.84
2017-11-21T12:48:47.628Z,9.82
2017-11-21T12:49:47.624Z,9.84
2017-11-21T12:50:47.623Z,9.88
2017-11-21T12:51:47.623Z,9.81
2017-11-21T12:52:47.622Z,9.91
2017-11-21T12:53:47.618Z,9.87
2017-11-21T12:54:47.618Z,9.84
2017-11-21T12:55:47.622Z,9.80
2017-11-21T12:56:47.615Z,9.85
2017-11-21T12:57:47.615Z,9.94
2017-11-21T12:58:47.611Z,9.91
2017-11-21T12:59:47.610Z,10.02
2017-11-21T13:00:47.610Z,9.99
2017-11-21T13:01:47.606Z,10.10
2017-11-21T13:02:47.606Z,10.10
2017-11-21T13:03:47.605Z,10.06
2017-11-21T13:04:47.603Z,10.07
2017-11-21T13:05:47.601Z,10.02
2017-11-21T13:06:47.602Z,10.10
2017-11-21T13:07:47.599Z,10.03
2017-11-21T13:08:47.615Z,10.06
2017-11-21T13:09:47.596Z,10.13
2017-11-21T13:10:47.593Z,10.12
2017-11-21T13:11:47.592Z,10.23
2017-11-21T13:12:47.591Z,10.13
2017-11-21T13:13:47.590Z,10.21
2017-11-21T13:14:47.586Z,10.23
2017-11-21T13:15:47.586Z,10.28